Foremost, Canada
Current Conditions -  °F | °C
As of 3:00 AM on Tuesday 21 Oct 2014 (Local Time) from CYXH Reporting Station
Clear Clear  
Wind Chill: 38°   Ceiling: Unl
Heat Index: 43°   Visibility: 9mi
Dew Point: 36°   Wind: 8mph
Humidity: 76%   Direction: 180°S
Pressure: 29.64"   Gusts: NA
Location:  49.48°N, 111.43°W
Report Text: CYXH 210900Z AUTO 18007KT 9SM CLR 06/02 A2964 RMK SLP034
Loading
Personal Weather Stations






























Interactive Weather Map
Tropical Storm Tracking
New forecast layout! Learn more

10-Day Weather Forecast

Advertisements
Track Severe Weather on mobile